createdAt,value
2023-03-31T00:00:48.590Z,2.40
2023-03-31T00:03:22.554Z,2.40
2023-03-31T00:05:53.574Z,2.38
2023-03-31T00:08:21.559Z,2.20
2023-03-31T00:10:49.482Z,2.50
2023-03-31T00:13:17.522Z,2.90
2023-03-31T00:15:46.708Z,2.20
2023-03-31T00:18:14.406Z,2.40
2023-03-31T00:20:42.989Z,2.37
2023-03-31T00:23:11.123Z,2.50
2023-03-31T00:25:41.786Z,2.40
2023-03-31T00:28:09.490Z,2.28
2023-03-31T00:30:37.457Z,2.00
2023-03-31T00:33:06.967Z,2.03
2023-03-31T00:35:39.366Z,2.03
2023-03-31T00:38:08.905Z,1.83
2023-03-31T00:40:36.669Z,2.08
2023-03-31T00:43:04.314Z,1.92
2023-03-31T00:45:32.523Z,2.20
2023-03-31T00:48:04.574Z,2.00
2023-03-31T00:50:37.103Z,1.92
2023-03-31T00:53:08.838Z,2.25
2023-03-31T00:55:39.438Z,2.20
2023-03-31T00:58:08.530Z,1.75
2023-03-31T01:00:36.323Z,1.90
2023-03-31T01:03:07.506Z,1.80
2023-03-31T01:05:39.591Z,2.47
2023-03-31T01:08:07.428Z,1.70
2023-03-31T01:10:41.701Z,2.30
2023-03-31T01:13:10.137Z,2.10
2023-03-31T01:15:38.011Z,2.10
2023-03-31T01:18:06.283Z,2.00
2023-03-31T01:20:41.477Z,2.40
2023-03-31T01:23:32.172Z,2.00
2023-03-31T01:26:38.830Z,2.70
2023-03-31T01:29:16.174Z,1.92
2023-03-31T01:32:07.955Z,2.22
2023-03-31T01:35:03.974Z,2.25
2023-03-31T01:38:13.388Z,2.25
2023-03-31T01:40:58.943Z,1.83
2023-03-31T01:43:31.092Z,1.90
2023-03-31T01:46:03.011Z,2.15
2023-03-31T01:48:41.933Z,1.53
2023-03-31T01:51:14.623Z,1.73
2023-03-31T01:53:47.765Z,1.70
2023-03-31T01:56:19.797Z,1.90
2023-03-31T01:58:52.128Z,1.90
2023-03-31T02:01:23.443Z,1.95
2023-03-31T02:03:56.540Z,1.58
2023-03-31T02:06:27.070Z,1.90
2023-03-31T02:08:57.695Z,1.80
2023-03-31T02:11:29.898Z,1.80
2023-03-31T02:13:58.020Z,1.85
2023-03-31T02:16:28.003Z,1.67
2023-03-31T02:19:02.513Z,2.20
2023-03-31T02:21:30.826Z,2.00
2023-03-31T02:23:58.962Z,2.30
2023-03-31T02:26:31.157Z,2.30
2023-03-31T02:28:59.019Z,2.10
2023-03-31T02:31:30.434Z,2.63
2023-03-31T02:33:58.288Z,2.30
2023-03-31T02:36:26.496Z,2.08
2023-03-31T02:38:57.964Z,2.40
2023-03-31T02:41:25.892Z,2.15
2023-03-31T02:43:54.967Z,2.75
2023-03-31T02:46:22.936Z,2.33
2023-03-31T02:48:53.110Z,2.45
2023-03-31T02:51:51.283Z,1.58
2023-03-31T02:54:27.465Z,1.30
2023-03-31T02:57:11.200Z,1.40
2023-03-31T02:59:48.047Z,1.40
2023-03-31T03:02:19.956Z,1.35
2023-03-31T03:05:19.020Z,1.30
2023-03-31T03:07:50.390Z,1.23
2023-03-31T03:10:24.066Z,1.23
2023-03-31T03:12:58.648Z,1.40
2023-03-31T03:15:30.103Z,1.00
2023-03-31T03:17:58.081Z,1.30
2023-03-31T03:20:26.119Z,1.55
2023-03-31T03:22:53.853Z,1.30
2023-03-31T03:25:21.867Z,1.63
2023-03-31T03:27:49.640Z,1.40
2023-03-31T03:30:17.586Z,1.45
2023-03-31T03:32:46.746Z,1.48
2023-03-31T03:35:14.822Z,2.47
2023-03-31T03:37:42.561Z,2.33
2023-03-31T03:40:11.343Z,2.50
2023-03-31T03:42:39.477Z,2.30
2023-03-31T03:45:07.989Z,2.78
2023-03-31T03:47:36.167Z,2.80
2023-03-31T03:50:06.048Z,3.47
2023-03-31T03:52:33.774Z,3.50
2023-03-31T03:55:01.969Z,2.90
2023-03-31T03:57:29.943Z,3.23
2023-03-31T03:59:57.702Z,3.15
2023-03-31T04:02:27.970Z,3.05
2023-03-31T04:04:55.872Z,3.03
2023-03-31T04:07:25.032Z,3.03
2023-03-31T04:09:52.663Z,3.22
2023-03-31T04:12:20.343Z,3.63
2023-03-31T04:14:48.084Z,3.50
2023-03-31T04:17:16.320Z,3.47
2023-03-31T04:19:44.005Z,3.67
2023-03-31T04:22:15.383Z,3.50
2023-03-31T04:24:46.574Z,3.50
2023-03-31T04:27:17.369Z,3.22
2023-03-31T04:29:54.615Z,3.50
2023-03-31T04:32:22.794Z,3.35
2023-03-31T04:34:51.665Z,3.40
2023-03-31T04:37:19.389Z,3.38
2023-03-31T04:39:50.776Z,3.10
2023-03-31T04:42:18.523Z,3.22
2023-03-31T04:44:46.260Z,2.85
2023-03-31T04:47:14.051Z,3.00
2023-03-31T04:49:41.784Z,3.37
2023-03-31T04:52:09.531Z,2.70
2023-03-31T04:54:37.216Z,2.63
2023-03-31T04:57:06.487Z,2.83
2023-03-31T04:59:34.222Z,2.67
2023-03-31T05:02:01.917Z,2.47
2023-03-31T05:04:29.627Z,3.00
2023-03-31T05:06:57.346Z,2.55
2023-03-31T05:09:25.279Z,2.92
2023-03-31T05:11:52.938Z,2.78
2023-03-31T05:14:22.089Z,2.70
2023-03-31T05:16:49.894Z,2.70
2023-03-31T05:19:18.310Z,3.07
2023-03-31T05:21:46.647Z,2.95
2023-03-31T05:24:14.911Z,2.72
2023-03-31T05:26:47.966Z,2.88
2023-03-31T05:29:16.612Z,3.20
2023-03-31T05:31:45.937Z,2.90
2023-03-31T05:34:13.651Z,2.67
2023-03-31T05:36:41.295Z,2.65
2023-03-31T05:39:09.035Z,2.65
2023-03-31T05:41:36.886Z,2.70
2023-03-31T05:44:04.566Z,2.88
2023-03-31T05:46:32.752Z,2.47
2023-03-31T05:49:02.644Z,2.80
2023-03-31T05:51:30.368Z,2.63
2023-03-31T05:53:58.116Z,2.53
2023-03-31T05:56:27.510Z,2.70
2023-03-31T05:58:55.365Z,2.50
2023-03-31T06:01:23.827Z,2.20
2023-03-31T06:03:51.886Z,2.30
2023-03-31T06:06:21.376Z,2.90
2023-03-31T06:08:50.085Z,1.90
2023-03-31T06:11:19.447Z,2.80
2023-03-31T06:13:47.436Z,2.50
2023-03-31T06:16:17.178Z,1.95
2023-03-31T06:18:45.231Z,2.58
2023-03-31T06:21:14.641Z,2.00
2023-03-31T06:23:44.359Z,2.63
2023-03-31T06:26:13.397Z,2.55
2023-03-31T06:28:41.121Z,2.63
2023-03-31T06:31:12.035Z,2.50
2023-03-31T06:33:40.538Z,3.13
2023-03-31T06:36:09.343Z,2.42
2023-03-31T06:38:38.858Z,2.15
2023-03-31T06:41:09.317Z,3.17
2023-03-31T06:43:37.240Z,3.20
2023-03-31T06:46:05.826Z,3.40
2023-03-31T06:48:33.810Z,3.63
2023-03-31T06:51:02.611Z,3.53
2023-03-31T06:53:30.667Z,3.75
2023-03-31T06:55:58.964Z,3.67
2023-03-31T06:58:31.184Z,3.83
2023-03-31T07:00:59.571Z,4.00
2023-03-31T07:03:29.565Z,3.97
2023-03-31T07:05:57.777Z,4.50
2023-03-31T07:08:25.741Z,3.80
2023-03-31T07:10:57.741Z,3.72
2023-03-31T07:13:26.268Z,4.43
2023-03-31T07:15:56.150Z,3.83
2023-03-31T07:18:26.201Z,4.05
2023-03-31T07:20:54.218Z,3.60
2023-03-31T07:23:22.188Z,3.33
2023-03-31T07:25:50.357Z,3.30
2023-03-31T07:28:18.240Z,3.10
2023-03-31T07:30:45.961Z,2.47
2023-03-31T07:33:15.578Z,2.55
2023-03-31T07:35:43.619Z,2.20
2023-03-31T07:38:12.055Z,1.77
2023-03-31T07:40:40.426Z,1.87
2023-03-31T07:43:08.353Z,1.77
2023-03-31T07:45:36.334Z,1.63
2023-03-31T07:48:04.142Z,1.73
2023-03-31T07:50:33.292Z,1.60
2023-03-31T07:53:01.038Z,1.25
2023-03-31T07:55:28.726Z,1.30
2023-03-31T07:57:56.605Z,1.17
2023-03-31T08:00:24.735Z,1.10
2023-03-31T08:02:52.694Z,1.00
2023-03-31T08:05:21.966Z,1.40
2023-03-31T08:07:51.823Z,1.55
2023-03-31T08:10:22.452Z,1.10
2023-03-31T08:12:50.294Z,1.50
2023-03-31T08:15:18.304Z,1.02
2023-03-31T08:17:46.189Z,1.23
2023-03-31T08:20:14.536Z,1.70
2023-03-31T08:22:42.318Z,1.10
2023-03-31T08:25:11.712Z,1.20
2023-03-31T08:27:40.789Z,1.10
2023-03-31T08:30:10.529Z,1.10
2023-03-31T08:32:38.404Z,1.20
2023-03-31T08:35:07.382Z,0.90
2023-03-31T08:37:35.682Z,1.30
2023-03-31T08:40:05.395Z,0.63
2023-03-31T08:42:38.252Z,0.90
2023-03-31T08:45:10.918Z,0.73
2023-03-31T08:47:39.153Z,1.10
2023-03-31T08:50:09.649Z,1.13
2023-03-31T08:52:40.797Z,0.85
2023-03-31T08:55:13.438Z,1.13
2023-03-31T08:57:52.783Z,0.90
2023-03-31T09:00:21.540Z,1.05
2023-03-31T09:02:53.138Z,1.00
2023-03-31T09:05:59.586Z,0.90
2023-03-31T09:08:34.590Z,0.70
2023-03-31T09:11:09.281Z,0.98
2023-03-31T09:13:53.303Z,1.05
2023-03-31T09:16:24.515Z,0.82
2023-03-31T09:18:53.822Z,1.40
2023-03-31T09:21:24.346Z,1.20
2023-03-31T09:23:57.103Z,1.33
2023-03-31T09:26:28.449Z,1.17
2023-03-31T09:28:59.037Z,1.05
2023-03-31T09:31:26.992Z,0.80
2023-03-31T09:33:58.930Z,0.90
2023-03-31T09:36:26.684Z,1.30
2023-03-31T09:38:54.458Z,1.20
2023-03-31T09:41:22.304Z,1.15
2023-03-31T09:43:51.861Z,1.40
2023-03-31T09:46:27.893Z,0.80
2023-03-31T09:49:00.352Z,2.83
2023-03-31T09:51:32.572Z,1.60
2023-03-31T09:54:04.278Z,2.15
2023-03-31T09:56:46.363Z,1.85
2023-03-31T09:59:17.820Z,2.15
2023-03-31T10:01:48.476Z,2.40
2023-03-31T10:04:21.690Z,1.98
2023-03-31T10:06:50.052Z,1.90
2023-03-31T10:09:18.232Z,1.83
2023-03-31T10:11:57.740Z,2.03
2023-03-31T10:14:28.606Z,1.77
2023-03-31T10:16:58.785Z,2.40
2023-03-31T10:19:28.616Z,2.47
2023-03-31T10:22:00.790Z,2.70
2023-03-31T10:24:38.099Z,2.33
2023-03-31T10:27:07.569Z,2.83
2023-03-31T10:29:35.794Z,2.42
2023-03-31T10:32:06.576Z,2.28
2023-03-31T10:34:34.999Z,1.98
2023-03-31T10:37:05.576Z,2.17
2023-03-31T10:39:33.838Z,2.47
2023-03-31T10:42:02.144Z,2.00
2023-03-31T10:44:35.529Z,2.47
2023-03-31T10:47:07.951Z,2.80
2023-03-31T10:49:39.380Z,2.55
2023-03-31T10:52:17.111Z,2.80
2023-03-31T10:54:49.171Z,2.55
2023-03-31T10:57:17.314Z,2.65
2023-03-31T10:59:59.524Z,2.35
2023-03-31T11:03:04.571Z,2.90
2023-03-31T11:05:37.685Z,2.90
2023-03-31T11:08:18.677Z,2.70
2023-03-31T11:10:59.166Z,2.50
2023-03-31T11:13:32.432Z,2.45
2023-03-31T11:16:08.099Z,2.67
2023-03-31T11:18:54.201Z,2.53
2023-03-31T11:21:26.922Z,2.80
2023-03-31T11:24:02.765Z,2.60
2023-03-31T11:26:37.228Z,2.75
2023-03-31T11:29:16.391Z,2.22
2023-03-31T11:31:50.848Z,2.33
2023-03-31T11:34:34.403Z,2.78
2023-03-31T11:37:17.142Z,2.27
2023-03-31T11:39:55.575Z,2.30
2023-03-31T11:42:27.520Z,2.63
2023-03-31T11:44:58.305Z,2.53
2023-03-31T11:47:28.214Z,2.40
2023-03-31T11:49:59.246Z,2.60
2023-03-31T11:52:30.590Z,2.35
2023-03-31T11:55:02.963Z,2.43
2023-03-31T11:57:33.289Z,2.08
2023-03-31T12:00:07.196Z,1.95
2023-03-31T12:02:41.679Z,2.10
2023-03-31T12:05:12.189Z,2.10
2023-03-31T12:07:43.044Z,2.03
2023-03-31T12:10:18.918Z,1.75
2023-03-31T12:12:49.966Z,1.80
2023-03-31T12:15:21.076Z,1.77
2023-03-31T12:17:51.785Z,2.42
2023-03-31T12:20:26.942Z,1.88
2023-03-31T12:22:55.900Z,1.60
2023-03-31T12:25:26.542Z,1.90
2023-03-31T12:27:54.880Z,1.92
2023-03-31T12:30:30.384Z,1.85
2023-03-31T12:33:00.767Z,1.60
2023-03-31T12:35:37.284Z,1.70
2023-03-31T12:38:28.023Z,2.08
2023-03-31T12:41:00.847Z,1.55
2023-03-31T12:43:53.746Z,1.70
2023-03-31T12:46:44.301Z,1.30
2023-03-31T12:49:21.727Z,1.30
2023-03-31T12:52:00.302Z,1.45
2023-03-31T12:54:51.749Z,1.30
2023-03-31T12:57:22.372Z,1.50
2023-03-31T13:00:21.057Z,1.52
2023-03-31T13:02:49.399Z,1.27
2023-03-31T13:05:47.206Z,1.77
2023-03-31T13:08:50.862Z,1.42
2023-03-31T13:11:19.119Z,1.30
2023-03-31T13:16:36.968Z,1.15
2023-03-31T13:19:04.966Z,1.52
2023-03-31T13:21:32.772Z,1.30
2023-03-31T13:24:03.213Z,1.23
2023-03-31T13:26:42.377Z,1.30
2023-03-31T13:29:22.520Z,1.65
2023-03-31T13:32:23.545Z,1.90
2023-03-31T13:35:00.632Z,1.30
2023-03-31T13:37:47.018Z,1.30
2023-03-31T13:40:28.047Z,1.55
2023-03-31T13:43:20.819Z,1.50
2023-03-31T13:45:55.700Z,1.95
2023-03-31T13:48:36.150Z,1.67
2023-03-31T13:51:39.237Z,1.42
2023-03-31T13:54:36.978Z,1.30
2023-03-31T13:57:38.589Z,1.45
2023-03-31T14:00:17.640Z,1.63
2023-03-31T14:02:54.444Z,1.47
2023-03-31T14:05:27.230Z,1.40
2023-03-31T14:07:57.202Z,1.67
2023-03-31T14:10:27.523Z,1.37
2023-03-31T14:13:11.011Z,1.08
2023-03-31T14:15:40.953Z,1.52
2023-03-31T14:18:09.076Z,1.30
2023-03-31T14:20:42.216Z,1.33
2023-03-31T14:23:18.024Z,1.20
2023-03-31T14:25:51.865Z,1.27
2023-03-31T14:28:31.352Z,1.55
2023-03-31T14:31:10.991Z,1.40
2023-03-31T14:33:43.718Z,1.02
2023-03-31T14:36:15.925Z,1.42
2023-03-31T14:38:44.520Z,1.70
2023-03-31T14:41:20.012Z,1.30
2023-03-31T14:43:50.466Z,1.38
2023-03-31T14:46:21.819Z,1.17
2023-03-31T14:48:51.308Z,1.30
2023-03-31T14:51:20.197Z,1.38
2023-03-31T14:53:47.887Z,1.27
2023-03-31T14:56:18.270Z,1.60
2023-03-31T14:58:50.529Z,1.58
2023-03-31T15:01:21.237Z,1.60
2023-03-31T15:03:49.228Z,1.70
2023-03-31T15:06:17.192Z,1.65
2023-03-31T15:08:45.605Z,1.90
2023-03-31T15:11:19.158Z,1.77
2023-03-31T15:14:03.754Z,1.90
2023-03-31T15:16:36.084Z,1.60
2023-03-31T15:19:09.076Z,1.85
2023-03-31T15:21:39.288Z,2.00
2023-03-31T15:29:23.291Z,1.13
2023-03-31T15:31:51.380Z,1.35
2023-03-31T15:34:23.143Z,1.35
2023-03-31T15:36:51.152Z,2.08
2023-03-31T15:39:18.886Z,1.80
2023-03-31T15:41:48.924Z,2.70
2023-03-31T15:44:31.425Z,1.60
2023-03-31T15:47:00.985Z,1.27
2023-03-31T15:49:29.654Z,1.15
2023-03-31T15:52:00.490Z,1.20
2023-03-31T15:54:34.881Z,1.38
2023-03-31T15:57:05.088Z,0.77
2023-03-31T16:00:47.348Z,0.70
2023-03-31T16:03:18.414Z,0.83
2023-03-31T16:05:54.723Z,0.35
2023-03-31T16:08:26.504Z,0.60
2023-03-31T16:11:00.574Z,0.70
2023-03-31T16:13:28.507Z,1.63
2023-03-31T16:15:58.027Z,1.43
2023-03-31T16:18:29.326Z,3.33
2023-03-31T16:20:59.465Z,4.82
2023-03-31T16:23:30.296Z,3.00
2023-03-31T16:25:58.385Z,2.53
2023-03-31T16:28:27.589Z,3.07
2023-03-31T16:30:55.795Z,2.60
2023-03-31T16:33:25.403Z,1.30
2023-03-31T16:35:56.189Z,3.30
2023-03-31T16:38:25.535Z,5.93
2023-03-31T16:40:54.663Z,2.90
2023-03-31T16:43:23.819Z,3.08
2023-03-31T16:45:52.850Z,1.80
2023-03-31T16:48:21.783Z,0.70
2023-03-31T16:50:52.937Z,0.70
2023-03-31T16:53:22.220Z,0.65
2023-03-31T16:55:50.038Z,0.70
2023-03-31T16:58:18.068Z,0.90
2023-03-31T17:00:46.700Z,0.63
2023-03-31T17:03:15.661Z,0.50
2023-03-31T17:05:44.751Z,0.28
2023-03-31T17:08:14.323Z,0.40
2023-03-31T17:10:42.594Z,0.20
2023-03-31T17:13:10.968Z,0.40
2023-03-31T17:15:38.828Z,0.70
2023-03-31T17:18:07.282Z,0.30
2023-03-31T17:20:35.641Z,0.40
2023-03-31T17:23:04.383Z,0.20
2023-03-31T17:25:34.493Z,0.30
2023-03-31T17:28:02.254Z,0.20
2023-03-31T17:30:30.108Z,0.30
2023-03-31T17:32:58.349Z,0.50
2023-03-31T17:35:26.390Z,0.20
2023-03-31T17:37:55.388Z,0.40
2023-03-31T17:40:25.183Z,0.20
2023-03-31T17:42:55.827Z,0.30
2023-03-31T17:45:23.777Z,0.20
2023-03-31T17:47:51.659Z,0.30
2023-03-31T17:50:19.643Z,0.20
2023-03-31T17:52:47.365Z,0.50
2023-03-31T17:55:15.533Z,0.45
2023-03-31T17:57:43.318Z,0.35
2023-03-31T18:00:16.057Z,0.30
2023-03-31T18:02:44.273Z,1.10
2023-03-31T18:05:12.319Z,0.50
2023-03-31T18:07:41.422Z,1.43
2023-03-31T18:10:10.733Z,0.90
2023-03-31T18:12:38.763Z,0.80
2023-03-31T18:15:07.797Z,1.90
2023-03-31T18:17:37.292Z,3.60
2023-03-31T18:20:06.200Z,1.50
2023-03-31T18:22:33.943Z,4.93
2023-03-31T18:25:01.679Z,1.33
2023-03-31T18:27:29.426Z,1.50
2023-03-31T18:29:57.506Z,2.45
2023-03-31T18:32:25.460Z,4.40
2023-03-31T18:34:54.622Z,2.35
2023-03-31T18:37:22.381Z,2.13
2023-03-31T18:39:50.102Z,2.33
2023-03-31T18:42:19.718Z,3.15
2023-03-31T18:44:47.513Z,2.90
2023-03-31T18:47:15.276Z,2.13
2023-03-31T18:49:43.258Z,1.88
2023-03-31T18:52:12.372Z,0.80
2023-03-31T18:54:40.092Z,1.88
2023-03-31T18:57:07.766Z,1.48
2023-03-31T18:59:35.493Z,1.27
2023-03-31T19:02:03.291Z,1.02
2023-03-31T19:04:31.300Z,1.33
2023-03-31T19:06:58.953Z,1.98
2023-03-31T19:09:28.847Z,2.00
2023-03-31T19:11:57.220Z,0.80
2023-03-31T19:14:25.064Z,1.92
2023-03-31T19:16:52.843Z,1.13
2023-03-31T19:19:20.695Z,1.67
2023-03-31T19:21:48.484Z,1.60
2023-03-31T19:24:16.933Z,1.00
2023-03-31T19:26:46.330Z,3.35
2023-03-31T19:29:14.180Z,0.70
2023-03-31T19:31:42.319Z,0.80
2023-03-31T19:34:12.242Z,0.90
2023-03-31T19:36:40.187Z,1.17
2023-03-31T19:39:08.103Z,0.80
2023-03-31T19:41:36.302Z,1.00
2023-03-31T19:44:05.355Z,0.90
2023-03-31T19:46:33.148Z,1.50
2023-03-31T19:49:01.490Z,1.48
2023-03-31T19:51:29.266Z,1.23
2023-03-31T19:53:57.534Z,1.23
2023-03-31T19:56:27.050Z,3.33
2023-03-31T19:58:54.987Z,1.90
2023-03-31T20:01:26.116Z,4.75
2023-03-31T20:03:54.680Z,2.40
2023-03-31T20:06:24.297Z,2.05
2023-03-31T20:08:53.463Z,1.80
2023-03-31T20:11:21.897Z,6.43
2023-03-31T20:13:49.951Z,6.72
2023-03-31T20:16:20.306Z,8.98
2023-03-31T20:18:53.126Z,8.45
2023-03-31T20:21:22.507Z,2.30
2023-03-31T20:23:51.170Z,2.20
2023-03-31T20:26:20.816Z,2.00
2023-03-31T20:28:50.016Z,2.17
2023-03-31T20:31:19.677Z,2.50
2023-03-31T20:33:49.155Z,2.77
2023-03-31T20:36:18.921Z,2.22
2023-03-31T20:38:48.210Z,2.17
2023-03-31T20:41:16.266Z,1.98
2023-03-31T20:43:44.031Z,2.43
2023-03-31T20:46:12.306Z,2.30
2023-03-31T20:48:41.780Z,2.03
2023-03-31T20:51:12.768Z,2.20
2023-03-31T20:53:42.710Z,2.07
2023-03-31T20:56:10.750Z,1.92
2023-03-31T20:58:38.785Z,2.25
2023-03-31T21:01:07.047Z,2.00
2023-03-31T21:03:35.471Z,2.30
2023-03-31T21:06:04.703Z,2.00
2023-03-31T21:08:34.139Z,2.10
2023-03-31T21:11:02.068Z,2.00
2023-03-31T21:13:30.617Z,2.38
2023-03-31T21:15:58.905Z,2.00
2023-03-31T21:18:27.152Z,1.77
2023-03-31T21:20:56.313Z,1.70
2023-03-31T21:23:24.786Z,2.20
2023-03-31T21:25:55.400Z,1.75
2023-03-31T21:28:25.366Z,2.28
2023-03-31T21:30:54.335Z,2.13
2023-03-31T21:33:22.817Z,2.00
2023-03-31T21:35:50.854Z,1.90
2023-03-31T21:38:19.667Z,2.30
2023-03-31T21:40:47.826Z,2.20
2023-03-31T21:43:17.127Z,2.30
2023-03-31T21:45:44.840Z,2.20
2023-03-31T21:48:12.784Z,1.70
2023-03-31T21:50:41.232Z,1.90
2023-03-31T21:53:09.799Z,2.10
2023-03-31T21:55:38.490Z,2.10
2023-03-31T21:58:07.075Z,2.30
2023-03-31T22:00:37.352Z,1.90
2023-03-31T22:03:16.880Z,2.35
2023-03-31T22:05:50.664Z,2.20
2023-03-31T22:08:18.402Z,2.13
2023-03-31T22:10:49.493Z,2.00
2023-03-31T22:13:17.345Z,2.33
2023-03-31T22:15:46.625Z,2.58
2023-03-31T22:18:14.477Z,2.70
2023-03-31T22:20:42.123Z,2.28
2023-03-31T22:23:10.224Z,2.13
2023-03-31T22:25:38.051Z,2.28
2023-03-31T22:28:07.318Z,2.35
2023-03-31T22:30:35.242Z,2.22
2023-03-31T22:33:04.400Z,2.45
2023-03-31T22:35:32.563Z,2.50
2023-03-31T22:38:01.376Z,1.93
2023-03-31T22:40:29.992Z,2.20
2023-03-31T22:42:58.479Z,2.50
2023-03-31T22:45:26.320Z,2.25
2023-03-31T22:47:54.081Z,2.33
2023-03-31T22:50:23.731Z,1.70
2023-03-31T22:52:51.858Z,2.10
2023-03-31T22:55:19.746Z,1.90
2023-03-31T22:57:47.744Z,1.88
2023-03-31T23:00:15.949Z,1.80
2023-03-31T23:02:43.725Z,1.65
2023-03-31T23:05:12.181Z,1.67
2023-03-31T23:07:41.523Z,1.75
2023-03-31T23:10:10.064Z,1.90
2023-03-31T23:12:37.839Z,1.88
2023-03-31T23:15:05.834Z,1.80
2023-03-31T23:17:33.512Z,1.90
2023-03-31T23:20:01.916Z,1.70
2023-03-31T23:22:29.684Z,2.05
2023-03-31T23:24:58.750Z,1.65
2023-03-31T23:27:26.477Z,1.90
2023-03-31T23:29:54.214Z,1.37
2023-03-31T23:32:22.043Z,1.42
2023-03-31T23:34:49.706Z,1.45
2023-03-31T23:37:17.382Z,1.90
2023-03-31T23:39:45.063Z,1.40
2023-03-31T23:42:17.359Z,1.80
2023-03-31T23:44:45.014Z,1.40
2023-03-31T23:47:12.758Z,1.90
2023-03-31T23:49:40.424Z,1.65
2023-03-31T23:52:08.070Z,1.60
2023-03-31T23:54:35.797Z,1.83
2023-03-31T23:57:04.191Z,1.55
2023-03-31T23:59:33.325Z,2.10
